Decoded Metar for LKTB (TURANY in CZECH REPUBLIC) (IATA:BRQ) | Meteo·Mobile Aviation Weather
aviador You're here:

LKTB Decoded Metar

TURANY in CZECH REPUBLIC
Report Time2019-11-20 09:00:00
UTC Time2019-11-20 09:18:12
Flight Rules mvfr MVFR
Wind070° at 06 kt
W.Decomp.*RWY 09: 5.5 kt HW 2.3 kt LCW
RWY 10: 5.0 kt HW 3.3 kt LCW
Visibility9999 m
Phenomena:N/A
Clouds:Few 023 Hf
Broken 029 Hf
Expected CloudBase > 800 ft AGL from Temp-Dew spread
Ceiling2,900 ft
Temp09°C (ISA -4)
Dew Point07°C (87% RH)
AAT6.1°C
QNH1017 hPa
Density Alt285 ft
Elevation807 ft
Report Wrong Elevation
Raw Report
LKTB 200900Z 07006KT 9999 FEW023 BKN029 09/07 Q1017 NOSIG=

Extra information for LKTB:More info

Metar Taf Metar & Taf Last 4 Metars F.Rules Stats Wind Profile Meteogram Temp Stats Airport Information Weather charts Add Link Nearby VenuesMetar ALERT Operation Metar Decoded Social comments